Time;durP1;ratioP1;P1;durP2;ratioP2;P2;SDS_P1;SDS_P2;PMS_P1;PMS_P2;Temp;Humidity;BMP_temperature;BMP_pressure;BME280_temperature;BME280_humidity;BME280_pressure;Samples;Min_cycle;Max_cycle;Signal;HPM_P1;HPM_P2
2022/06/28 00:03:27;;;;;;;2.95;1.10;;;;;;;;;;12611642;28;20046;-77
2022/06/28 00:09:29;;;;;;;4.90;1.05;;;;;;;;;;12612099;28;20036;-77
2022/06/28 00:21:51;;;;;;;3.42;1.23;;;;;;;;;;12627014;28;20230;-77
2022/06/28 00:27:53;;;;;;;2.90;0.68;;;;;;;;;;12644832;28;20040;-77
2022/06/28 00:33:55;;;;;;;6.47;1.27;;;;;;;;;;12627284;28;20028;-81
2022/06/28 00:39:57;;;;;;;3.03;1.20;;;;;;;;;;12610695;28;20399;-77
2022/06/28 00:45:59;;;;;;;2.03;1.70;;;;;;;;;;12644500;28;20067;-81
2022/06/28 00:52:02;;;;;;;4.35;1.38;;;;;;;;;;12644370;28;20067;-77
2022/06/28 00:58:05;;;;;;;2.75;1.35;;;;;;;;;;12609499;28;20032;-77
2022/06/28 01:04:06;;;;;;;3.63;1.15;;;;;;;;;;12626107;28;20047;-81
2022/06/28 01:10:10;;;;;;;4.90;1.33;;;;;;;;;;12609637;28;20036;-77
2022/06/28 01:16:13;;;;;;;2.53;0.88;;;;;;;;;;12610047;28;20499;-77
2022/06/28 01:22:18;;;;;;;5.03;1.35;;;;;;;;;;12625442;28;20484;-82
2022/06/28 01:28:20;;;;;;;3.47;1.15;;;;;;;;;;12625655;28;20059;-81
2022/06/28 01:34:26;;;;;;;2.00;1.02;;;;;;;;;;12613036;28;20123;-82
2022/06/28 01:40:28;;;;;;;4.45;1.40;;;;;;;;;;12618741;28;20052;-77
2022/06/28 01:46:31;;;;;;;4.60;1.20;;;;;;;;;;12634514;28;20419;-77
2022/06/28 01:52:41;;;;;;;2.95;0.95;;;;;;;;;;12634209;28;20507;-81
2022/06/28 01:59:03;;;;;;;3.33;1.10;;;;;;;;;;12626213;28;20048;-81
2022/06/28 02:05:16;;;;;;;4.85;1.40;;;;;;;;;;12633859;28;20032;-81
2022/06/28 02:11:18;;;;;;;2.25;1.15;;;;;;;;;;12616360;28;20036;-81
2022/06/28 02:17:26;;;;;;;4.22;1.35;;;;;;;;;;12633511;28;20040;-77
2022/06/28 02:23:28;;;;;;;3.55;1.40;;;;;;;;;;12632578;28;20043;-81
2022/06/28 02:29:29;;;;;;;2.47;1.20;;;;;;;;;;12616416;28;20392;-80
2022/06/28 02:41:52;;;;;;;2.65;1.10;;;;;;;;;;12631774;28;20055;-81
2022/06/28 02:47:54;;;;;;;4.22;1.65;;;;;;;;;;12614505;28;20043;-81
2022/06/28 02:53:56;;;;;;;4.40;1.38;;;;;;;;;;12614695;28;20480;-81
2022/06/28 02:59:58;;;;;;;3.53;1.77;;;;;;;;;;12631026;28;20031;-81
2022/06/28 03:06:00;;;;;;;4.18;1.58;;;;;;;;;;12630115;28;20039;-77
2022/06/28 03:12:04;;;;;;;4.57;1.60;;;;;;;;;;12630144;28;20404;-81
2022/06/28 03:18:06;;;;;;;4.90;1.73;;;;;;;;;;12629974;28;20384;-81
2022/06/28 03:24:09;;;;;;;2.28;1.08;;;;;;;;;;12630043;28;20051;-77
2022/06/28 03:30:12;;;;;;;4.60;1.70;;;;;;;;;;12612882;28;20027;-77
2022/06/28 03:36:18;;;;;;;4.57;1.25;;;;;;;;;;12613591;28;20032;-82
2022/06/28 03:42:22;;;;;;;2.42;1.20;;;;;;;;;;12629318;28;20052;-77
2022/06/28 03:48:26;;;;;;;1.92;1.20;;;;;;;;;;12628823;28;20118;-77
2022/06/28 03:54:48;;;;;;;3.45;1.30;;;;;;;;;;12646192;28;20502;-77
2022/06/28 04:01:00;;;;;;;3.70;1.55;;;;;;;;;;12627240;28;20032;-78
2022/06/28 04:07:04;;;;;;;6.95;2.85;;;;;;;;;;12612323;28;20044;-78
2022/06/28 04:13:07;;;;;;;7.13;4.05;;;;;;;;;;12627509;28;20036;-82
2022/06/28 04:19:10;;;;;;;8.00;4.13;;;;;;;;;;12627424;28;20047;-82
2022/06/28 04:25:20;;;;;;;4.25;3.28;;;;;;;;;;12611956;28;20062;-78
2022/06/28 04:31:24;;;;;;;8.50;3.70;;;;;;;;;;12610334;28;20040;-78
2022/06/28 04:37:27;;;;;;;6.68;3.22;;;;;;;;;;12626344;28;20052;-78
2022/06/28 04:43:31;;;;;;;5.72;2.35;;;;;;;;;;12610210;28;20052;-82
2022/06/28 04:49:33;;;;;;;3.85;2.10;;;;;;;;;;12626263;28;20039;-77
2022/06/28 04:55:35;;;;;;;4.68;1.80;;;;;;;;;;12626302;28;20036;-82
2022/06/28 05:01:42;;;;;;;4.60;2.05;;;;;;;;;;12609988;28;20024;-78
2022/06/28 05:07:44;;;;;;;5.35;1.52;;;;;;;;;;12609404;28;20484;-78
2022/06/28 05:13:54;;;;;;;5.13;1.50;;;;;;;;;;12619992;28;20127;-78
2022/06/28 05:19:57;;;;;;;6.60;1.88;;;;;;;;;;12619245;28;20050;-78
2022/06/28 05:25:59;;;;;;;2.85;1.33;;;;;;;;;;12618579;28;20040;-78
2022/06/28 05:32:02;;;;;;;3.13;1.23;;;;;;;;;;12634633;28;20028;-78
2022/06/28 05:38:04;;;;;;;4.28;1.50;;;;;;;;;;12631664;28;20060;-78
2022/06/28 05:44:05;;;;;;;2.55;1.30;;;;;;;;;;12634043;28;20048;-79
2022/06/28 05:50:07;;;;;;;5.80;2.28;;;;;;;;;;12633737;28;20032;-79
2022/06/28 05:56:09;;;;;;;7.18;1.90;;;;;;;;;;12651549;28;20388;-78
2022/06/28 06:02:11;;;;;;;4.35;1.58;;;;;;;;;;12650552;28;20035;-79
2022/06/28 06:08:13;;;;;;;9.00;1.92;;;;;;;;;;12630988;28;20507;-81
2022/06/28 06:14:17;;;;;;;3.90;1.60;;;;;;;;;;12614226;28;20044;-80
2022/06/28 06:20:19;;;;;;;4.80;1.85;;;;;;;;;;12628981;28;20032;-80
2022/06/28 06:26:20;;;;;;;5.43;1.90;;;;;;;;;;12615366;28;20048;-79
2022/06/28 06:32:22;;;;;;;4.05;1.15;;;;;;;;;;12631050;28;20503;-81
2022/06/28 06:38:42;;;;;;;6.43;1.60;;;;;;;;;;12651755;28;20048;-85
2022/06/28 06:44:44;;;;;;;5.85;1.75;;;;;;;;;;12630961;28;20044;-85
2022/06/28 06:50:46;;;;;;;6.93;1.80;;;;;;;;;;12613792;28;20024;-84
2022/06/28 06:56:48;;;;;;;4.13;1.48;;;;;;;;;;12649553;28;20052;-81
2022/06/28 07:02:50;;;;;;;3.80;1.30;;;;;;;;;;12614605;28;20032;-79
2022/06/28 07:08:52;;;;;;;3.42;1.30;;;;;;;;;;12649106;28;20048;-84
2022/06/28 07:14:55;;;;;;;4.85;1.67;;;;;;;;;;12613219;28;20028;-88
2022/06/28 07:21:01;;;;;;;3.03;1.17;;;;;;;;;;12581667;28;20051;-88
2022/06/28 07:27:03;;;;;;;4.07;1.25;;;;;;;;;;12562929;28;20453;-87
2022/06/28 07:33:06;;;;;;;5.10;1.30;;;;;;;;;;12580687;28;20052;-88
2022/06/28 07:39:08;;;;;;;3.53;1.10;;;;;;;;;;12602415;28;20051;-81
2022/06/28 07:45:48;;;;;;;5.00;1.17;;;;;;;;;;12441821;28;20046;-85
2022/06/28 07:58:16;;;;;;;7.47;2.33;;;;;;;;;;12627907;28;20035;-80
2022/06/28 08:04:19;;;;;;;5.35;1.52;;;;;;;;;;12614144;28;20048;-86
2022/06/28 08:10:22;;;;;;;7.97;2.22;;;;;;;;;;12628112;28;20379;-86
2022/06/28 08:16:24;;;;;;;6.53;2.10;;;;;;;;;;12630665;28;20040;-86
2022/06/28 08:22:27;;;;;;;9.82;2.45;;;;;;;;;;12642064;28;20483;-88
2022/06/28 08:28:29;;;;;;;10.23;2.63;;;;;;;;;;12650259;28;20044;-85
2022/06/28 08:34:33;;;;;;;6.05;1.75;;;;;;;;;;12610206;28;20042;-88
2022/06/28 08:40:35;;;;;;;4.78;2.03;;;;;;;;;;12625837;28;20055;-88
2022/06/28 08:46:37;;;;;;;5.18;2.00;;;;;;;;;;12608505;28;20044;-89
2022/06/28 08:52:41;;;;;;;5.10;1.80;;;;;;;;;;12625274;28;20052;-87
2022/06/28 08:58:44;;;;;;;10.00;2.10;;;;;;;;;;12628062;28;20028;-86
2022/06/28 09:04:53;;;;;;;6.78;2.00;;;;;;;;;;12624152;28;20048;-87
2022/06/28 09:10:55;;;;;;;6.13;1.45;;;;;;;;;;12625204;28;20035;-87
2022/06/28 09:16:58;;;;;;;7.38;1.83;;;;;;;;;;12617128;28;20040;-88
2022/06/28 09:23:00;;;;;;;5.13;1.45;;;;;;;;;;12629314;28;20031;-87
2022/06/28 09:29:02;;;;;;;8.00;1.90;;;;;;;;;;12626814;28;20054;-86
2022/06/28 09:35:03;;;;;;;5.95;1.80;;;;;;;;;;12644697;28;20055;-85
2022/06/28 09:41:05;;;;;;;8.35;2.15;;;;;;;;;;12627522;28;20485;-86
2022/06/28 09:47:07;;;;;;;8.23;2.28;;;;;;;;;;12642468;28;20393;-87
2022/06/28 09:53:10;;;;;;;11.70;1.85;;;;;;;;;;12608598;28;20032;-85
2022/06/28 09:59:12;;;;;;;3.03;0.93;;;;;;;;;;12650771;28;20040;-87
2022/06/28 10:05:14;;;;;;;4.25;1.20;;;;;;;;;;12645041;28;20059;-87
2022/06/28 10:11:16;;;;;;;8.23;1.60;;;;;;;;;;12652366;28;20032;-84
2022/06/28 10:17:18;;;;;;;9.98;1.65;;;;;;;;;;12634826;28;20047;-86
2022/06/28 10:23:20;;;;;;;6.25;1.33;;;;;;;;;;12631187;28;20040;-85
2022/06/28 10:29:22;;;;;;;2.10;0.90;;;;;;;;;;12615342;28;20452;-84
2022/06/28 10:35:47;;;;;;;4.38;1.10;;;;;;;;;;12642435;28;20027;-83
2022/06/28 10:41:52;;;;;;;2.17;1.02;;;;;;;;;;12615103;28;20044;-83
2022/06/28 10:48:09;;;;;;;4.97;1.10;;;;;;;;;;12625469;28;20048;-82
2022/06/28 10:54:11;;;;;;;2.80;0.93;;;;;;;;;;12648816;28;20381;-78
2022/06/28 11:00:21;;;;;;;5.85;1.23;;;;;;;;;;12648507;28;20039;-79
2022/06/28 11:06:44;;;;;;;4.23;0.90;;;;;;;;;;12646983;28;20044;-79
2022/06/28 11:12:46;;;;;;;4.70;0.93;;;;;;;;;;12647725;28;20036;-80
2022/06/28 11:18:48;;;;;;;3.22;1.20;;;;;;;;;;12647234;28;20024;-78
2022/06/28 11:24:50;;;;;;;2.97;0.80;;;;;;;;;;12629478;28;20055;-78
2022/06/28 11:30:51;;;;;;;5.13;1.10;;;;;;;;;;12647080;28;20039;-77
2022/06/28 11:37:10;;;;;;;1.50;0.65;;;;;;;;;;12647102;28;20052;-78
2022/06/28 11:43:12;;;;;;;2.33;0.88;;;;;;;;;;12646612;28;20036;-83
2022/06/28 11:49:25;;;;;;;3.95;1.13;;;;;;;;;;12646462;28;20059;-83
2022/06/28 11:55:39;;;;;;;4.15;1.00;;;;;;;;;;12628273;28;20028;-83
2022/06/28 12:01:41;;;;;;;4.32;1.42;;;;;;;;;;12603093;28;20400;-83
2022/06/28 12:07:44;;;;;;;5.82;1.52;;;;;;;;;;12627753;28;20047;-84
2022/06/28 12:13:45;;;;;;;3.95;1.25;;;;;;;;;;12610294;28;20032;-84
2022/06/28 12:19:47;;;;;;;1.67;1.05;;;;;;;;;;12609256;28;20040;-83
2022/06/28 12:25:58;;;;;;;3.03;1.08;;;;;;;;;;12645858;28;20036;-84
2022/06/28 12:32:00;;;;;;;5.78;1.55;;;;;;;;;;12607472;28;20036;-84
2022/06/28 12:38:01;;;;;;;4.65;1.10;;;;;;;;;;12626844;28;20491;-84
2022/06/28 12:44:03;;;;;;;6.00;1.15;;;;;;;;;;12627669;28;20395;-84
2022/06/28 12:50:06;;;;;;;4.20;1.30;;;;;;;;;;12685782;28;20020;-84
2022/06/28 12:56:08;;;;;;;2.38;1.20;;;;;;;;;;12645157;28;20036;-83
2022/06/28 13:02:10;;;;;;;2.55;1.30;;;;;;;;;;12608412;28;20047;-85
2022/06/28 13:08:11;;;;;;;3.90;1.35;;;;;;;;;;12641995;28;20472;-85
2022/06/28 13:14:13;;;;;;;2.92;1.25;;;;;;;;;;12623943;28;20399;-85
2022/06/28 13:20:15;;;;;;;2.50;0.98;;;;;;;;;;12640780;28;20032;-85
2022/06/28 13:26:17;;;;;;;3.85;1.17;;;;;;;;;;12640841;28;20044;-85
2022/06/28 13:32:19;;;;;;;4.13;1.50;;;;;;;;;;12628832;28;20024;-84
2022/06/28 13:38:21;;;;;;;2.17;1.10;;;;;;;;;;12632090;28;20063;-85
2022/06/28 13:44:23;;;;;;;2.80;1.35;;;;;;;;;;12649193;28;20415;-82
2022/06/28 13:50:25;;;;;;;4.20;1.38;;;;;;;;;;12648550;28;20024;-83
2022/06/28 13:56:27;;;;;;;1.58;1.00;;;;;;;;;;12614994;28;20039;-82
2022/06/28 14:02:29;;;;;;;6.38;1.35;;;;;;;;;;12662290;28;20032;-80
2022/06/28 14:08:30;;;;;;;4.30;1.10;;;;;;;;;;12630419;28;20048;-83
2022/06/28 14:14:32;;;;;;;2.60;1.08;;;;;;;;;;12650782;28;20035;-83
2022/06/28 14:20:34;;;;;;;3.92;1.10;;;;;;;;;;12650096;28;20039;-83
2022/06/28 14:26:36;;;;;;;2.72;1.20;;;;;;;;;;12651683;28;20043;-82
2022/06/28 14:32:38;;;;;;;3.70;1.20;;;;;;;;;;12634544;28;20039;-83
2022/06/28 14:38:40;;;;;;;4.15;1.13;;;;;;;;;;12652846;28;20048;-82
2022/06/28 14:44:41;;;;;;;2.42;1.13;;;;;;;;;;12647796;28;20044;-82
2022/06/28 14:50:43;;;;;;;4.97;1.00;;;;;;;;;;12632493;28;20043;-82
2022/06/28 14:56:45;;;;;;;5.28;1.20;;;;;;;;;;12647566;28;20048;-82
2022/06/28 15:02:47;;;;;;;5.28;1.58;;;;;;;;;;12628662;28;20036;-81
2022/06/28 15:08:49;;;;;;;2.88;0.98;;;;;;;;;;12629642;28;20036;-82
2022/06/28 15:14:52;;;;;;;3.65;1.10;;;;;;;;;;12646565;28;20122;-82
2022/06/28 15:20:54;;;;;;;2.50;0.98;;;;;;;;;;12646508;28;20032;-82
2022/06/28 15:33:16;;;;;;;7.47;2.10;;;;;;;;;;12648643;28;20028;-82
2022/06/28 15:39:18;;;;;;;6.25;1.95;;;;;;;;;;12628623;28;20106;-83
2022/06/28 15:45:19;;;;;;;6.28;1.70;;;;;;;;;;12645862;28;20052;-84
2022/06/28 15:51:21;;;;;;;5.15;1.88;;;;;;;;;;12627158;28;20032;-84
2022/06/28 15:57:23;;;;;;;5.88;2.17;;;;;;;;;;12644849;28;20042;-80
2022/06/28 16:03:25;;;;;;;7.05;2.20;;;;;;;;;;12631475;28;20039;-84
2022/06/28 16:09:27;;;;;;;9.00;1.98;;;;;;;;;;12646350;28;20059;-84
2022/06/28 16:15:36;;;;;;;5.63;1.80;;;;;;;;;;12646205;28;20043;-79
2022/06/28 16:21:38;;;;;;;7.45;2.20;;;;;;;;;;12627421;28;20098;-79
2022/06/28 16:27:40;;;;;;;6.03;1.92;;;;;;;;;;12644456;28;20047;-85
2022/06/28 16:33:42;;;;;;;5.88;2.10;;;;;;;;;;12645026;28;20035;-79
2022/06/28 16:39:43;;;;;;;5.90;1.70;;;;;;;;;;12626936;28;20047;-84
2022/06/28 16:45:46;;;;;;;2.70;1.20;;;;;;;;;;12625895;28;20055;-84
2022/06/28 16:51:47;;;;;;;3.22;1.30;;;;;;;;;;12609129;28;20032;-84
2022/06/28 16:57:49;;;;;;;3.42;1.17;;;;;;;;;;12644280;28;20365;-84
2022/06/28 17:03:51;;;;;;;7.20;1.73;;;;;;;;;;12644568;28;20036;-84
2022/06/28 17:09:59;;;;;;;3.47;1.45;;;;;;;;;;12636608;28;20067;-85
2022/06/28 17:16:01;;;;;;;3.72;1.52;;;;;;;;;;12635795;28;20045;-84
2022/06/28 17:22:03;;;;;;;3.60;1.70;;;;;;;;;;12653363;28;20039;-84
2022/06/28 17:28:05;;;;;;;5.15;1.63;;;;;;;;;;12634887;28;20036;-84
2022/06/28 17:34:07;;;;;;;4.03;1.35;;;;;;;;;;12634962;28;20039;-83
2022/06/28 17:40:08;;;;;;;6.38;1.70;;;;;;;;;;12634993;28;20059;-84
2022/06/28 17:46:10;;;;;;;4.53;1.63;;;;;;;;;;12652270;28;20044;-84
2022/06/28 17:52:12;;;;;;;3.63;1.38;;;;;;;;;;12633854;28;20035;-84
2022/06/28 17:58:13;;;;;;;8.02;2.28;;;;;;;;;;12633996;28;20039;-84
2022/06/28 18:04:17;;;;;;;6.22;2.03;;;;;;;;;;12633500;28;20038;-79
2022/06/28 18:10:19;;;;;;;3.50;1.30;;;;;;;;;;12633898;28;20039;-78
2022/06/28 18:16:21;;;;;;;5.82;1.70;;;;;;;;;;12632120;28;20035;-78
2022/06/28 18:22:23;;;;;;;5.07;1.40;;;;;;;;;;12650937;28;20033;-84
2022/06/28 18:28:24;;;;;;;6.90;1.60;;;;;;;;;;12650906;28;20506;-78
2022/06/28 18:34:26;;;;;;;4.97;1.60;;;;;;;;;;12631771;28;20039;-78
2022/06/28 18:40:28;;;;;;;8.68;1.90;;;;;;;;;;12650361;28;20047;-84
2022/06/28 18:46:30;;;;;;;5.22;2.05;;;;;;;;;;12648967;28;20067;-78
2022/06/28 18:52:32;;;;;;;4.18;1.63;;;;;;;;;;12649090;28;20030;-78
2022/06/28 18:58:34;;;;;;;5.22;1.70;;;;;;;;;;12630915;28;20047;-78
2022/06/28 19:04:36;;;;;;;6.22;1.92;;;;;;;;;;12648713;28;20381;-78
2022/06/28 19:10:38;;;;;;;4.78;1.55;;;;;;;;;;12631442;28;20028;-78
2022/06/28 19:16:40;;;;;;;6.82;1.90;;;;;;;;;;12629654;28;20494;-79
2022/06/28 19:22:41;;;;;;;4.07;1.80;;;;;;;;;;12647579;28;20024;-78
2022/06/28 19:28:43;;;;;;;6.47;1.90;;;;;;;;;;12629265;28;20040;-79
2022/06/28 19:34:45;;;;;;;3.83;1.80;;;;;;;;;;12647391;28;20384;-78
2022/06/28 19:40:46;;;;;;;5.80;1.92;;;;;;;;;;12647389;28;20063;-78
2022/06/28 19:46:49;;;;;;;8.20;2.50;;;;;;;;;;12628468;28;20048;-78
2022/06/28 19:52:50;;;;;;;7.85;2.72;;;;;;;;;;12628294;28;20027;-78
2022/06/28 19:58:52;;;;;;;8.85;3.33;;;;;;;;;;12646256;28;20036;-78
2022/06/28 20:04:54;;;;;;;8.38;3.00;;;;;;;;;;12610651;28;20051;-78
2022/06/28 20:10:56;;;;;;;8.05;2.40;;;;;;;;;;12647389;28;20024;-78
2022/06/28 20:16:58;;;;;;;8.55;2.22;;;;;;;;;;12646250;28;20032;-78
2022/06/28 20:23:00;;;;;;;8.07;2.40;;;;;;;;;;12646271;28;20036;-78
2022/06/28 20:29:05;;;;;;;4.53;2.00;;;;;;;;;;12628670;28;20047;-77
2022/06/28 20:35:07;;;;;;;7.18;2.20;;;;;;;;;;12626599;28;20032;-78
2022/06/28 20:47:39;;;;;;;4.50;2.08;;;;;;;;;;12613437;28;20071;-78
2022/06/28 20:53:42;;;;;;;6.13;1.90;;;;;;;;;;12645049;28;20507;-78
2022/06/28 20:59:44;;;;;;;7.32;2.55;;;;;;;;;;12643886;28;20476;-78
2022/06/28 21:05:46;;;;;;;6.18;2.90;;;;;;;;;;12626146;28;20294;-85
2022/06/28 21:11:48;;;;;;;12.73;4.82;;;;;;;;;;12609574;28;20044;-85
2022/06/28 21:17:52;;;;;;;6.95;2.75;;;;;;;;;;12626444;28;20032;-85
2022/06/28 21:23:53;;;;;;;9.00;3.40;;;;;;;;;;12626113;28;20028;-85
2022/06/28 21:29:55;;;;;;;7.60;3.30;;;;;;;;;;12643939;28;20484;-84
2022/06/28 21:35:57;;;;;;;12.30;4.38;;;;;;;;;;12609113;28;20025;-85
2022/06/28 21:41:59;;;;;;;7.95;2.85;;;;;;;;;;12643904;28;20075;-78
2022/06/28 21:48:01;;;;;;;6.68;3.10;;;;;;;;;;12643239;28;20043;-78
2022/06/28 21:54:03;;;;;;;6.22;2.60;;;;;;;;;;12650217;28;20394;-85
2022/06/28 22:00:08;;;;;;;8.50;2.97;;;;;;;;;;12655416;28;20036;-84
2022/06/28 22:06:10;;;;;;;9.30;3.10;;;;;;;;;;12635845;28;20032;-85
2022/06/28 22:12:12;;;;;;;10.82;3.78;;;;;;;;;;12616944;28;20036;-78
2022/06/28 22:18:14;;;;;;;7.05;2.95;;;;;;;;;;12651897;28;20031;-78
2022/06/28 22:24:15;;;;;;;6.38;2.85;;;;;;;;;;12633462;28;20035;-78
2022/06/28 22:30:17;;;;;;;6.90;2.25;;;;;;;;;;12633018;28;20032;-85
2022/06/28 22:36:19;;;;;;;6.05;2.22;;;;;;;;;;12633457;28;20027;-85
2022/06/28 22:42:21;;;;;;;4.50;2.05;;;;;;;;;;12651166;28;20407;-86
2022/06/28 22:48:23;;;;;;;5.90;1.88;;;;;;;;;;12650611;28;20436;-78
2022/06/28 22:54:25;;;;;;;7.40;2.10;;;;;;;;;;12650372;28;20036;-78
2022/06/28 23:00:27;;;;;;;5.13;2.03;;;;;;;;;;12615014;28;20032;-78
2022/06/28 23:06:28;;;;;;;5.72;2.47;;;;;;;;;;12632524;28;20040;-85
2022/06/28 23:12:30;;;;;;;3.88;1.80;;;;;;;;;;12615709;28;20040;-85
2022/06/28 23:18:32;;;;;;;5.65;2.05;;;;;;;;;;12632919;28;20039;-78
2022/06/28 23:24:34;;;;;;;4.03;2.38;;;;;;;;;;12633950;28;20028;-78
2022/06/28 23:30:35;;;;;;;4.80;2.03;;;;;;;;;;12648719;28;20043;-78
2022/06/28 23:36:37;;;;;;;4.10;1.58;;;;;;;;;;12630917;28;20028;-84
2022/06/28 23:42:39;;;;;;;5.75;2.28;;;;;;;;;;12614081;28;20032;-85
2022/06/28 23:48:41;;;;;;;5.22;2.28;;;;;;;;;;12647640;28;20048;-78
